createdAt,value
2022-09-28T00:01:21.079Z,8.50
2022-09-28T00:03:51.333Z,8.40
2022-09-28T00:06:21.296Z,8.70
2022-09-28T00:08:51.200Z,8.90
2022-09-28T00:11:21.006Z,12.10
2022-09-28T00:13:51.438Z,8.80
2022-09-28T00:16:21.195Z,8.50
2022-09-28T00:18:51.256Z,9.20
2022-09-28T00:21:21.609Z,8.60
2022-09-28T00:24:10.783Z,8.40
2022-09-28T00:26:40.579Z,9.10
2022-09-28T00:29:14.056Z,9.00
2022-09-28T00:34:10.631Z,8.10
2022-09-28T00:39:09.684Z,8.50
2022-09-28T00:41:37.820Z,8.20
2022-09-28T00:44:36.976Z,8.70
2022-09-28T00:47:10.845Z,8.30
2022-09-28T00:49:44.376Z,8.60
2022-09-28T00:52:15.773Z,8.70
2022-09-28T00:54:48.098Z,8.70
2022-09-28T00:57:17.443Z,7.50
2022-09-28T00:59:45.749Z,9.20
2022-09-28T01:04:42.648Z,9.00
2022-09-28T01:07:11.274Z,8.60
2022-09-28T01:09:40.739Z,9.30
2022-09-28T01:12:10.420Z,8.60
2022-09-28T01:14:38.824Z,9.00
2022-09-28T01:17:12.303Z,8.50
2022-09-28T01:20:00.251Z,8.70
2022-09-28T01:22:43.487Z,8.90
2022-09-28T01:25:14.391Z,8.70
2022-09-28T01:27:46.242Z,10.40
2022-09-28T01:30:17.716Z,10.20
2022-09-28T01:32:53.506Z,9.20
2022-09-28T01:35:27.049Z,8.60
2022-09-28T01:38:00.830Z,8.60
2022-09-28T01:40:31.208Z,8.70
2022-09-28T01:43:04.116Z,8.70
2022-09-28T01:45:37.953Z,8.40
2022-09-28T01:48:08.963Z,8.70
2022-09-28T01:50:39.741Z,9.10
2022-09-28T01:53:13.504Z,8.50
2022-09-28T01:55:46.084Z,8.80
2022-09-28T01:58:19.876Z,8.50
2022-09-28T02:00:53.500Z,9.20
2022-09-28T02:03:30.528Z,9.10
2022-09-28T02:06:01.871Z,8.70
2022-09-28T02:08:34.482Z,8.80
2022-09-28T02:11:07.075Z,8.60
2022-09-28T02:13:40.690Z,8.80
2022-09-28T02:16:15.634Z,9.10
2022-09-28T02:18:44.915Z,9.30
2022-09-28T02:21:17.353Z,8.90
2022-09-28T02:23:53.480Z,7.50
2022-09-28T02:26:26.129Z,8.80
2022-09-28T02:28:55.696Z,9.30
2022-09-28T02:33:54.485Z,9.40
2022-09-28T02:36:23.649Z,8.60
2022-09-28T02:38:52.123Z,8.60
2022-09-28T02:41:32.039Z,8.70
2022-09-28T02:44:12.538Z,8.20
2022-09-28T02:46:48.223Z,8.30
2022-09-28T02:49:25.859Z,8.30
2022-09-28T02:52:19.473Z,8.40
2022-09-28T02:55:21.101Z,8.60
2022-09-28T02:58:06.770Z,8.40
2022-09-28T03:00:43.671Z,8.00
2022-09-28T03:03:22.129Z,8.60
2022-09-28T03:05:58.986Z,8.20
2022-09-28T03:08:32.451Z,8.30
2022-09-28T03:11:04.084Z,8.70
2022-09-28T03:13:34.493Z,8.40
2022-09-28T03:16:15.140Z,8.00
2022-09-28T03:18:44.360Z,7.90
2022-09-28T03:21:13.755Z,8.30
2022-09-28T03:31:07.476Z,8.60
2022-09-28T03:33:36.904Z,8.20
2022-09-28T03:41:02.225Z,8.20
2022-09-28T03:43:31.921Z,8.50
2022-09-28T03:46:01.600Z,7.70
2022-09-28T03:48:32.913Z,8.30
2022-09-28T03:51:05.390Z,8.20
2022-09-28T03:53:34.719Z,8.00
2022-09-28T03:56:06.972Z,8.80
2022-09-28T04:01:04.692Z,8.50
2022-09-28T04:03:32.970Z,8.40
2022-09-28T04:06:02.839Z,8.30
2022-09-28T04:13:28.901Z,8.80
2022-09-28T04:15:59.423Z,8.20
2022-09-28T04:18:27.733Z,8.30
2022-09-28T04:21:06.755Z,8.20
2022-09-28T04:26:03.979Z,8.00
2022-09-28T04:31:19.789Z,8.50
2022-09-28T04:33:48.083Z,8.00
2022-09-28T04:36:19.670Z,8.60
2022-09-28T04:41:22.859Z,8.40
2022-09-28T04:46:20.177Z,8.70
2022-09-28T04:51:18.003Z,8.50
2022-09-28T04:56:15.995Z,7.90
2022-09-28T04:58:49.109Z,8.30
2022-09-28T05:01:23.714Z,7.80
2022-09-28T05:06:22.791Z,7.80
2022-09-28T05:08:50.821Z,8.00
2022-09-28T05:13:50.426Z,8.00
2022-09-28T05:21:19.679Z,8.40
2022-09-28T05:23:49.208Z,9.40
2022-09-28T05:36:11.558Z,8.50
2022-09-28T05:41:09.510Z,8.50
2022-09-28T05:43:38.457Z,8.40
2022-09-28T05:46:07.237Z,8.00
2022-09-28T05:48:35.326Z,7.90
2022-09-28T05:58:30.430Z,8.50
2022-09-28T06:15:50.426Z,8.80
2022-09-28T06:23:15.397Z,8.30
2022-09-28T06:28:13.305Z,8.00
2022-09-28T06:30:42.818Z,8.30
2022-09-28T06:33:15.065Z,8.20
2022-09-28T06:35:43.462Z,8.90
2022-09-28T06:38:12.137Z,8.00
2022-09-28T06:43:12.575Z,8.20
2022-09-28T06:45:40.617Z,8.40
2022-09-28T06:48:10.449Z,8.30
2022-09-28T06:50:42.019Z,8.70
2022-09-28T06:53:13.616Z,8.60
2022-09-28T06:55:42.397Z,8.40
2022-09-28T06:58:13.005Z,9.20
2022-09-28T07:00:41.731Z,9.40
2022-09-28T07:03:12.763Z,8.90
2022-09-28T07:05:44.873Z,8.80
2022-09-28T07:10:43.341Z,10.10
2022-09-28T07:13:35.727Z,10.10
2022-09-28T07:16:00.581Z,9.90
2022-09-28T07:18:29.874Z,9.50
2022-09-28T07:20:59.907Z,8.90
2022-09-28T07:23:29.754Z,8.90
2022-09-28T07:25:58.259Z,8.90
2022-09-28T07:30:57.506Z,9.30
2022-09-28T07:33:32.482Z,9.30
2022-09-28T07:36:06.580Z,9.40
2022-09-28T07:38:34.654Z,10.10
2022-09-28T07:48:45.871Z,9.90
2022-09-28T07:51:15.515Z,10.10
2022-09-28T07:53:43.521Z,9.80
2022-09-28T08:01:14.914Z,9.60
2022-09-28T08:03:45.292Z,9.90
2022-09-28T08:06:17.106Z,9.80
2022-09-28T08:08:46.060Z,10.30
2022-09-28T08:11:15.502Z,10.10
2022-09-28T08:13:44.052Z,10.40
2022-09-28T08:23:56.223Z,9.60
2022-09-28T08:36:21.188Z,10.30
2022-09-28T08:41:31.361Z,10.10
2022-09-28T08:44:13.793Z,9.30
2022-09-28T08:46:46.008Z,9.90
2022-09-28T08:49:25.505Z,9.90
2022-09-28T08:51:59.815Z,10.10
2022-09-28T08:54:36.760Z,9.60
2022-09-28T08:57:11.884Z,10.20
2022-09-28T08:59:49.459Z,10.20
2022-09-28T09:02:22.378Z,10.50
2022-09-28T09:04:52.350Z,11.00
2022-09-28T09:07:47.159Z,10.30
2022-09-28T09:10:30.196Z,10.50
2022-09-28T09:13:12.423Z,10.30
2022-09-28T09:15:49.569Z,10.00
2022-09-28T09:18:27.716Z,10.60
2022-09-28T09:20:59.025Z,10.00
2022-09-28T09:23:38.356Z,10.20
2022-09-28T09:26:17.362Z,9.80
2022-09-28T09:29:04.828Z,10.00
2022-09-28T09:31:49.767Z,10.40
2022-09-28T09:34:35.296Z,9.80
2022-09-28T09:37:17.913Z,9.60
2022-09-28T09:40:01.335Z,9.90
2022-09-28T09:42:41.882Z,10.90
2022-09-28T09:45:30.972Z,10.60
2022-09-28T09:48:03.663Z,10.90
2022-09-28T09:50:39.905Z,10.40
2022-09-28T09:53:17.504Z,10.50
2022-09-28T09:55:48.015Z,11.10
2022-09-28T09:58:21.780Z,10.50
2022-09-28T10:00:53.899Z,11.50
2022-09-28T10:03:25.425Z,11.40
2022-09-28T10:05:57.524Z,12.30
2022-09-28T10:08:27.796Z,12.10
2022-09-28T10:11:08.508Z,12.50
2022-09-28T10:16:07.243Z,11.90
2022-09-28T10:18:36.134Z,11.80
2022-09-28T10:23:35.299Z,11.70
2022-09-28T10:26:06.512Z,12.20
2022-09-28T10:28:41.866Z,12.20
2022-09-28T10:31:37.019Z,12.60
2022-09-28T10:36:38.631Z,12.20
2022-09-28T10:44:08.775Z,11.90
2022-09-28T10:46:40.442Z,12.90
2022-09-28T10:49:14.015Z,12.10
2022-09-28T10:51:42.907Z,11.70
2022-09-28T10:54:16.749Z,12.40
2022-09-28T10:59:38.495Z,12.00
2022-09-28T11:02:20.620Z,12.20
2022-09-28T11:04:54.080Z,12.60
2022-09-28T11:07:25.110Z,13.00
2022-09-28T11:09:54.643Z,13.00
2022-09-28T11:12:26.123Z,12.80
2022-09-28T11:14:59.540Z,12.60
2022-09-28T11:17:31.038Z,12.80
2022-09-28T11:20:00.849Z,13.70
2022-09-28T11:22:36.911Z,13.40
2022-09-28T11:25:22.261Z,12.90
2022-09-28T11:28:04.854Z,12.30
2022-09-28T11:30:40.556Z,11.90
2022-09-28T11:33:19.254Z,12.10
2022-09-28T11:35:51.544Z,12.20
2022-09-28T11:38:40.694Z,13.10
2022-09-28T11:41:23.971Z,12.90
2022-09-28T11:44:15.844Z,12.90
2022-09-28T11:46:57.175Z,13.30
2022-09-28T11:49:34.266Z,13.20
2022-09-28T11:52:07.920Z,12.70
2022-09-28T11:54:44.461Z,12.80
2022-09-28T11:57:18.600Z,12.40
2022-09-28T11:59:57.479Z,12.60
2022-09-28T12:02:30.865Z,13.90
2022-09-28T12:05:10.255Z,12.90
2022-09-28T12:07:42.129Z,14.00
2022-09-28T12:10:15.902Z,14.00
2022-09-28T12:12:50.643Z,13.80
2022-09-28T12:15:22.479Z,14.30
2022-09-28T12:17:55.221Z,14.60
2022-09-28T12:20:30.220Z,14.00
2022-09-28T12:23:06.061Z,14.10
2022-09-28T12:25:41.962Z,13.70
2022-09-28T12:28:19.362Z,14.20
2022-09-28T12:30:50.509Z,14.30
2022-09-28T12:33:18.559Z,14.50
2022-09-28T12:36:03.719Z,14.10
2022-09-28T12:39:15.096Z,14.80
2022-09-28T12:41:57.634Z,15.00
2022-09-28T12:44:41.713Z,14.90
2022-09-28T12:47:30.801Z,14.50
2022-09-28T12:53:20.147Z,14.50
2022-09-28T12:56:06.966Z,14.60
2022-09-28T12:58:49.311Z,14.80
2022-09-28T13:01:38.838Z,15.00
2022-09-28T13:04:35.968Z,15.00
2022-09-28T13:07:07.187Z,14.30
2022-09-28T13:09:48.233Z,14.20
2022-09-28T13:12:26.064Z,14.10
2022-09-28T13:15:16.075Z,14.30
2022-09-28T13:17:52.564Z,14.20
2022-09-28T13:20:32.312Z,14.80
2022-09-28T13:23:12.921Z,14.30
2022-09-28T13:25:45.943Z,15.00
2022-09-28T13:28:18.014Z,15.20
2022-09-28T13:30:47.207Z,15.10
2022-09-28T13:33:22.683Z,14.40
2022-09-28T13:35:50.785Z,14.30
2022-09-28T13:38:50.836Z,15.40
2022-09-28T13:41:29.039Z,15.10
2022-09-28T13:44:20.954Z,14.80
2022-09-28T13:47:00.634Z,14.10
2022-09-28T13:49:40.351Z,14.40
2022-09-28T13:52:13.612Z,13.70
2022-09-28T13:55:04.708Z,13.50
2022-09-28T13:57:42.253Z,13.70
2022-09-28T14:00:18.569Z,13.10
2022-09-28T14:02:49.351Z,13.60
2022-09-28T14:05:47.245Z,13.40
2022-09-28T14:08:34.949Z,13.50
2022-09-28T14:11:25.676Z,13.10
2022-09-28T14:14:03.226Z,13.00
2022-09-28T14:16:34.503Z,12.90
2022-09-28T14:19:08.385Z,13.30
2022-09-28T14:21:55.758Z,12.80
2022-09-28T14:24:41.992Z,13.60
2022-09-28T14:27:30.332Z,13.40
2022-09-28T14:30:18.317Z,13.20
2022-09-28T14:32:53.633Z,13.10
2022-09-28T14:35:29.638Z,13.20
2022-09-28T14:38:19.854Z,13.10
2022-09-28T14:41:12.731Z,13.00
2022-09-28T14:44:03.703Z,13.00
2022-09-28T14:46:38.036Z,13.20
2022-09-28T14:49:23.368Z,13.20
2022-09-28T14:52:11.892Z,13.00
2022-09-28T14:54:49.641Z,13.40
2022-09-28T14:57:22.997Z,13.30
2022-09-28T15:02:28.069Z,14.10
2022-09-28T15:05:00.006Z,13.70
2022-09-28T15:07:30.264Z,13.90
2022-09-28T15:09:58.963Z,14.50
2022-09-28T15:12:29.715Z,14.30
2022-09-28T15:15:01.370Z,14.10
2022-09-28T15:17:38.492Z,14.60
2022-09-28T15:20:24.095Z,14.10
2022-09-28T15:22:57.168Z,14.40
2022-09-28T15:25:26.975Z,13.70
2022-09-28T15:27:56.719Z,14.50
2022-09-28T15:30:27.842Z,13.50
2022-09-28T15:33:18.699Z,14.00
2022-09-28T15:35:48.695Z,14.30
2022-09-28T15:38:18.390Z,14.00
2022-09-28T15:40:47.613Z,14.30
2022-09-28T15:43:26.952Z,15.10
2022-09-28T15:46:02.595Z,14.50
2022-09-28T15:48:38.287Z,14.50
2022-09-28T15:51:10.986Z,14.40
2022-09-28T15:53:44.112Z,14.30
2022-09-28T15:56:12.498Z,14.40
2022-09-28T15:58:41.226Z,14.10
2022-09-28T16:01:37.040Z,14.30
2022-09-28T16:04:38.457Z,14.00
2022-09-28T16:07:23.143Z,14.10
2022-09-28T16:10:02.811Z,14.10
2022-09-28T16:12:43.300Z,13.10
2022-09-28T16:15:20.348Z,13.50
2022-09-28T16:17:53.537Z,13.50
2022-09-28T16:20:29.193Z,12.80
2022-09-28T16:22:59.534Z,13.10
2022-09-28T16:25:28.341Z,13.10
2022-09-28T16:30:27.204Z,12.40
2022-09-28T16:32:57.501Z,12.60
2022-09-28T16:35:29.860Z,12.50
2022-09-28T16:38:13.770Z,12.10
2022-09-28T16:40:42.999Z,11.70
2022-09-28T16:43:20.322Z,12.00
2022-09-28T16:45:48.461Z,12.40
2022-09-28T16:48:21.627Z,11.50
2022-09-28T16:50:52.060Z,11.90
2022-09-28T16:56:06.892Z,11.10
2022-09-28T16:58:38.960Z,11.60
2022-09-28T17:01:08.701Z,11.90
2022-09-28T17:03:36.848Z,11.80
2022-09-28T17:06:07.422Z,11.20
2022-09-28T17:11:24.040Z,10.90
2022-09-28T17:16:50.974Z,10.20
2022-09-28T17:19:20.076Z,10.40
2022-09-28T17:21:51.188Z,10.50
2022-09-28T17:26:50.143Z,10.60
2022-09-28T17:31:47.888Z,10.60
2022-09-28T17:34:16.970Z,10.40
2022-09-28T17:36:45.892Z,10.60
2022-09-28T17:39:16.529Z,10.50
2022-09-28T17:41:45.244Z,10.50
2022-09-28T17:46:48.548Z,10.50
2022-09-28T17:54:16.921Z,10.00
2022-09-28T17:56:46.195Z,10.20
2022-09-28T17:59:17.238Z,10.40
2022-09-28T18:01:45.360Z,10.30
2022-09-28T18:04:33.344Z,10.00
2022-09-28T18:09:31.341Z,10.30
2022-09-28T18:12:01.566Z,9.90
2022-09-28T18:16:58.423Z,10.30
2022-09-28T18:22:01.326Z,10.30
2022-09-28T18:26:59.312Z,10.40
2022-09-28T18:44:24.801Z,10.60
2022-09-28T18:51:49.895Z,10.40
2022-09-28T18:56:46.607Z,10.80
2022-09-28T18:59:14.828Z,10.30
2022-09-28T19:01:44.421Z,10.70
2022-09-28T19:04:13.515Z,10.80
2022-09-28T19:06:44.458Z,10.50
2022-09-28T19:11:41.294Z,10.60
2022-09-28T19:14:14.997Z,10.50
2022-09-28T19:16:45.442Z,11.50
2022-09-28T19:19:15.704Z,10.70
2022-09-28T19:21:44.271Z,10.60
2022-09-28T19:24:16.422Z,10.70
2022-09-28T19:26:46.287Z,10.80
2022-09-28T19:31:44.358Z,10.50
2022-09-28T19:39:14.406Z,10.00
2022-09-28T19:41:47.774Z,10.40
2022-09-28T19:44:24.594Z,10.40
2022-09-28T19:46:55.613Z,10.00
2022-09-28T19:49:25.343Z,10.50
2022-09-28T19:52:14.295Z,9.70
2022-09-28T19:54:45.001Z,9.60
2022-09-28T19:57:15.967Z,10.10
2022-09-28T19:59:44.388Z,9.80
2022-09-28T20:02:14.090Z,9.80
2022-09-28T20:12:07.453Z,9.20
2022-09-28T20:14:38.189Z,9.90
2022-09-28T20:19:38.231Z,9.60
2022-09-28T20:29:33.471Z,8.60
2022-09-28T20:36:59.889Z,8.70
2022-09-28T20:39:27.925Z,9.70
2022-09-28T20:44:24.276Z,8.60
2022-09-28T20:49:20.992Z,8.90
2022-09-28T20:54:18.989Z,8.70
2022-09-28T21:06:43.060Z,9.60
2022-09-28T21:09:12.218Z,9.40
2022-09-28T21:11:41.774Z,10.00
2022-09-28T21:14:10.807Z,9.00
2022-09-28T21:16:39.726Z,9.70
2022-09-28T21:21:36.158Z,10.30
2022-09-28T21:24:04.592Z,9.50
2022-09-28T21:26:33.426Z,9.70
2022-09-28T21:29:04.818Z,9.70
2022-09-28T21:31:41.846Z,9.30
2022-09-28T21:34:13.321Z,9.50
2022-09-28T21:44:09.830Z,10.20
2022-09-28T21:46:39.245Z,9.60
2022-09-28T21:49:08.816Z,9.60
2022-09-28T21:51:37.996Z,9.30
2022-09-28T22:01:32.792Z,10.20
2022-09-28T22:08:58.456Z,9.20
2022-09-28T22:11:27.518Z,9.80
2022-09-28T22:13:58.074Z,9.50
2022-09-28T22:16:28.409Z,9.20
2022-09-28T22:18:58.311Z,9.00
2022-09-28T22:21:27.938Z,9.10
2022-09-28T22:24:00.814Z,9.20
2022-09-28T22:26:30.293Z,9.20
2022-09-28T22:28:59.950Z,9.00
2022-09-28T22:31:30.370Z,9.60
2022-09-28T22:34:00.365Z,8.30
2022-09-28T22:43:55.629Z,8.60
2022-09-28T22:46:25.961Z,8.70
2022-09-28T22:48:56.082Z,9.30
2022-09-28T22:51:27.119Z,9.00
2022-09-28T23:01:23.382Z,12.20
2022-09-28T23:03:52.448Z,9.10
2022-09-28T23:06:21.891Z,8.50
2022-09-28T23:08:53.483Z,8.40
2022-09-28T23:13:51.205Z,8.90
2022-09-28T23:16:19.485Z,8.50
2022-09-28T23:18:49.224Z,8.30
2022-09-28T23:23:47.340Z,8.50
2022-09-28T23:26:18.821Z,8.20
2022-09-28T23:28:47.278Z,8.10
2022-09-28T23:31:17.586Z,8.50
2022-09-28T23:36:14.407Z,8.60
2022-09-28T23:41:11.299Z,8.20
2022-09-28T23:43:40.683Z,8.50
